KELZ/ELZ METAR and TAF weather

Enter ICAO airport designator
Station Type Date Time Source
KELZ METAR 2018/12/10 23:56 UTC NOAA

KELZ 102356Z AUTO 33003KT 10SM OVC016 M04/M07 A3010 RMK AO2 SLP224 T10391067 11033 21039 56002 $


Station Type Date Time Source
KELZ Decoded METAR 2018/12/10 23:56 UTC NOAA

WELLSVILLE MUNICIPAL AIRPORT, NY, United States (KELZ) 42-06N 077-60W 646M
Dec 10, 2018 - 06:56 PM EST / 2018.12.10 2356 UTC
Wind: from the NNW (330 degrees) at 3 MPH (3 KT):0
Visibility: 10 mile(s):0
Sky conditions: overcast
Temperature: 25.0 F (-3.9 C)
Dew Point: 19.9 F (-6.7 C)
Relative Humidity: 80%
Pressure (altimeter): 30.1 in. Hg (1019 hPa)
Pressure tendency: 0.01 inches (0.2 hPa) lower than three hours ago
ob: KELZ 102356Z AUTO 33003KT 10SM OVC016 M04/M07 A3010 RMK AO2 SLP224 T10391067 11033 21039 56002
cycle: 0

Station Type Date Time Source
KELZ TAF UTC NOAA

Error!


Example: see airport list